createdAt,value
2023-05-15T00:01:39.091Z,11.90
2023-05-15T00:04:06.111Z,12.00
2023-05-15T00:06:33.212Z,12.00
2023-05-15T00:09:00.343Z,11.90
2023-05-15T00:11:28.016Z,12.00
2023-05-15T00:13:55.143Z,11.90
2023-05-15T00:16:22.365Z,11.90
2023-05-15T00:18:49.432Z,12.00
2023-05-15T00:21:17.073Z,12.00
2023-05-15T00:23:44.230Z,11.90
2023-05-15T00:26:11.290Z,12.00
2023-05-15T00:28:38.304Z,12.00
2023-05-15T00:31:05.404Z,11.90
2023-05-15T00:33:32.496Z,12.00
2023-05-15T00:35:59.505Z,12.00
2023-05-15T00:38:26.559Z,11.90
2023-05-15T00:40:55.530Z,12.00
2023-05-15T00:43:23.775Z,11.90
2023-05-15T00:45:51.520Z,11.90
2023-05-15T00:48:22.646Z,11.90
2023-05-15T00:50:53.445Z,12.00
2023-05-15T00:53:20.600Z,11.90
2023-05-15T00:55:48.044Z,12.00
2023-05-15T00:58:17.144Z,12.00
2023-05-15T01:00:46.564Z,12.00
2023-05-15T01:03:14.033Z,12.00
2023-05-15T01:05:41.455Z,12.00
2023-05-15T01:08:48.041Z,11.90
2023-05-15T01:11:17.170Z,12.00
2023-05-15T01:13:48.447Z,12.00
2023-05-15T01:16:15.631Z,12.00
2023-05-15T01:18:42.934Z,12.00
2023-05-15T01:21:15.776Z,12.00
2023-05-15T01:24:04.162Z,12.00
2023-05-15T01:27:11.294Z,12.00
2023-05-15T01:30:04.821Z,12.00
2023-05-15T01:33:09.275Z,12.00
2023-05-15T01:35:52.179Z,12.00
2023-05-15T01:38:35.361Z,12.00
2023-05-15T01:41:24.377Z,12.00
2023-05-15T01:44:14.965Z,12.00
2023-05-15T01:46:49.609Z,12.00
2023-05-15T01:49:20.110Z,12.00
2023-05-15T01:51:51.070Z,12.00
2023-05-15T01:54:19.243Z,12.00
2023-05-15T01:56:46.520Z,12.00
2023-05-15T01:59:15.842Z,12.00
2023-05-15T02:01:44.855Z,12.00
2023-05-15T02:04:12.540Z,12.00
2023-05-15T02:06:40.950Z,12.00
2023-05-15T02:09:09.451Z,12.00
2023-05-15T02:11:37.275Z,12.00
2023-05-15T02:14:05.607Z,12.00
2023-05-15T02:16:32.739Z,12.00
2023-05-15T02:18:59.861Z,12.00
2023-05-15T02:21:26.936Z,12.00
2023-05-15T02:23:53.963Z,12.00
2023-05-15T02:26:39.062Z,12.00
2023-05-15T02:29:42.559Z,12.00
2023-05-15T02:32:48.001Z,12.00
2023-05-15T02:35:53.387Z,12.00
2023-05-15T02:38:29.332Z,12.00
2023-05-15T02:40:58.058Z,12.00
2023-05-15T02:43:26.252Z,12.00
2023-05-15T02:45:54.246Z,12.00
2023-05-15T02:48:22.111Z,12.00
2023-05-15T02:50:49.203Z,12.00
2023-05-15T02:53:16.316Z,12.00
2023-05-15T02:55:43.488Z,12.00
2023-05-15T02:58:11.065Z,12.00
2023-05-15T03:00:38.204Z,12.00
2023-05-15T03:03:06.558Z,12.00
2023-05-15T03:05:33.590Z,12.00
2023-05-15T03:08:01.023Z,12.00
2023-05-15T03:10:28.063Z,12.00
2023-05-15T03:12:59.619Z,12.00
2023-05-15T03:15:26.902Z,12.00
2023-05-15T03:17:54.244Z,12.00
2023-05-15T03:20:21.454Z,12.00
2023-05-15T03:22:48.492Z,11.90
2023-05-15T03:25:16.306Z,11.90
2023-05-15T03:27:43.387Z,12.00
2023-05-15T03:30:10.969Z,11.90
2023-05-15T03:32:38.083Z,11.90
2023-05-15T03:35:05.735Z,11.90
2023-05-15T03:37:33.036Z,11.90
2023-05-15T03:40:00.071Z,11.90
2023-05-15T03:42:27.952Z,11.90
2023-05-15T03:44:56.347Z,11.90
2023-05-15T03:47:23.615Z,11.90
2023-05-15T03:49:50.665Z,11.90
2023-05-15T03:52:17.768Z,11.90
2023-05-15T03:54:44.863Z,11.90
2023-05-15T03:57:12.299Z,11.90
2023-05-15T03:59:39.384Z,11.90
2023-05-15T04:02:06.671Z,11.90
2023-05-15T04:04:33.778Z,12.00
2023-05-15T04:07:02.332Z,11.90
2023-05-15T04:09:29.337Z,12.00
2023-05-15T04:11:56.481Z,12.00
2023-05-15T04:14:23.483Z,12.00
2023-05-15T04:16:50.982Z,12.00
2023-05-15T04:19:18.213Z,11.90
2023-05-15T04:21:45.273Z,12.00
2023-05-15T04:24:12.963Z,12.00
2023-05-15T04:26:40.022Z,12.00
2023-05-15T04:29:07.172Z,12.00
2023-05-15T04:31:35.164Z,12.00
2023-05-15T04:34:03.924Z,12.00
2023-05-15T04:36:31.749Z,12.10
2023-05-15T04:39:01.427Z,12.10
2023-05-15T04:41:28.459Z,12.10
2023-05-15T04:43:56.012Z,12.10
2023-05-15T04:46:23.351Z,12.10
2023-05-15T04:48:50.861Z,12.10
2023-05-15T04:51:17.875Z,12.10
2023-05-15T04:53:44.875Z,12.10
2023-05-15T04:56:12.191Z,12.20
2023-05-15T04:58:39.180Z,12.20
2023-05-15T05:01:06.289Z,12.20
2023-05-15T05:03:33.479Z,12.20
2023-05-15T05:06:00.659Z,12.20
2023-05-15T05:08:27.664Z,12.20
2023-05-15T05:10:57.460Z,12.20
2023-05-15T05:13:24.535Z,12.30
2023-05-15T05:15:51.568Z,12.20
2023-05-15T05:18:18.782Z,12.20
2023-05-15T05:20:45.850Z,12.20
2023-05-15T05:23:14.891Z,12.20
2023-05-15T05:25:42.171Z,12.20
2023-05-15T05:28:09.155Z,12.20
2023-05-15T05:30:36.173Z,12.20
2023-05-15T05:33:03.321Z,12.10
2023-05-15T05:35:30.443Z,12.10
2023-05-15T05:37:57.522Z,12.10
2023-05-15T05:40:24.593Z,12.10
2023-05-15T05:42:51.751Z,12.10
2023-05-15T05:45:18.788Z,12.10
2023-05-15T05:47:45.821Z,12.00
2023-05-15T05:50:12.876Z,12.00
2023-05-15T05:52:40.057Z,11.90
2023-05-15T05:55:10.208Z,11.90
2023-05-15T05:57:37.393Z,11.90
2023-05-15T06:00:09.699Z,11.80
2023-05-15T06:02:40.756Z,11.80
2023-05-15T06:05:08.600Z,11.80
2023-05-15T06:07:35.879Z,11.90
2023-05-15T06:10:02.998Z,11.90
2023-05-15T06:12:30.085Z,11.90
2023-05-15T06:14:57.103Z,12.00
2023-05-15T06:17:24.148Z,11.90
2023-05-15T06:19:51.210Z,12.00
2023-05-15T06:22:18.248Z,12.00
2023-05-15T06:24:45.921Z,12.00
2023-05-15T06:27:12.972Z,12.10
2023-05-15T06:29:40.015Z,12.00
2023-05-15T06:32:07.405Z,12.10
2023-05-15T06:34:34.550Z,12.10
2023-05-15T06:37:02.245Z,12.20
2023-05-15T06:39:29.268Z,12.20
2023-05-15T06:42:01.181Z,12.20
2023-05-15T06:44:29.989Z,12.20
2023-05-15T06:46:58.062Z,12.20
2023-05-15T06:49:26.778Z,12.20
2023-05-15T06:51:55.045Z,12.20
2023-05-15T06:54:22.126Z,12.20
2023-05-15T06:56:49.184Z,12.20
2023-05-15T06:59:16.325Z,12.20
2023-05-15T07:01:43.459Z,12.20
2023-05-15T07:04:12.782Z,12.20
2023-05-15T07:06:39.895Z,12.20
2023-05-15T07:09:06.981Z,12.20
2023-05-15T07:11:37.306Z,12.20
2023-05-15T07:14:06.366Z,12.30
2023-05-15T07:16:33.359Z,12.20
2023-05-15T07:19:01.362Z,12.30
2023-05-15T07:21:28.473Z,12.30
2023-05-15T07:23:55.477Z,12.30
2023-05-15T07:26:34.385Z,12.30
2023-05-15T07:29:04.225Z,12.30
2023-05-15T07:31:32.108Z,12.30
2023-05-15T07:33:59.179Z,12.30
2023-05-15T07:36:26.290Z,12.20
2023-05-15T07:38:53.337Z,12.30
2023-05-15T07:41:20.833Z,12.20
2023-05-15T07:43:47.850Z,12.20
2023-05-15T07:46:14.948Z,12.30
2023-05-15T07:48:41.957Z,12.30
2023-05-15T07:51:09.835Z,12.30
2023-05-15T07:53:36.866Z,12.30
2023-05-15T07:56:04.243Z,12.30
2023-05-15T07:58:31.264Z,12.40
2023-05-15T08:00:58.264Z,12.40
2023-05-15T08:03:25.592Z,12.50
2023-05-15T08:05:52.708Z,12.60
2023-05-15T08:08:19.876Z,12.70
2023-05-15T08:10:46.917Z,12.70
2023-05-15T08:13:13.912Z,12.80
2023-05-15T08:15:41.000Z,12.90
2023-05-15T08:18:11.637Z,12.90
2023-05-15T08:20:39.128Z,13.00
2023-05-15T08:23:06.161Z,13.20
2023-05-15T08:25:33.183Z,13.30
2023-05-15T08:28:00.386Z,13.40
2023-05-15T08:30:27.655Z,13.40
2023-05-15T08:32:54.727Z,13.40
2023-05-15T08:35:21.808Z,13.40
2023-05-15T08:37:48.901Z,13.40
2023-05-15T08:40:16.285Z,13.50
2023-05-15T08:42:55.494Z,13.60
2023-05-15T08:45:23.036Z,13.60
2023-05-15T08:47:50.215Z,13.60
2023-05-15T08:50:17.776Z,13.50
2023-05-15T08:52:47.769Z,13.60
2023-05-15T08:55:16.501Z,13.70
2023-05-15T08:57:45.194Z,13.80
2023-05-15T09:00:14.739Z,13.90
2023-05-15T09:02:42.983Z,14.00
2023-05-15T09:05:10.880Z,14.10
2023-05-15T09:07:43.462Z,14.10
2023-05-15T09:10:11.224Z,14.20
2023-05-15T09:12:44.478Z,14.30
2023-05-15T09:15:17.958Z,14.30
2023-05-15T09:17:46.145Z,14.30
2023-05-15T09:20:45.558Z,14.20
2023-05-15T09:23:27.673Z,14.10
2023-05-15T09:25:57.040Z,14.00
2023-05-15T09:28:32.856Z,13.90
2023-05-15T09:31:05.636Z,13.90
2023-05-15T09:33:39.710Z,13.80
2023-05-15T09:36:08.894Z,13.80
2023-05-15T09:38:48.398Z,13.80
2023-05-15T09:41:24.243Z,13.90
2023-05-15T09:43:51.223Z,14.10
2023-05-15T09:46:18.337Z,14.30
2023-05-15T09:48:48.668Z,14.50
2023-05-15T09:51:18.590Z,14.70
2023-05-15T09:53:55.379Z,14.70
2023-05-15T09:56:22.499Z,14.70
2023-05-15T09:58:59.279Z,14.60
2023-05-15T10:01:27.816Z,14.50
2023-05-15T10:04:03.627Z,14.50
2023-05-15T10:06:37.975Z,14.60
2023-05-15T10:09:05.940Z,14.80
2023-05-15T10:11:39.038Z,15.00
2023-05-15T10:14:09.429Z,15.30
2023-05-15T10:16:38.795Z,15.50
2023-05-15T10:19:08.851Z,15.70
2023-05-15T10:21:38.689Z,15.70
2023-05-15T10:24:07.072Z,15.80
2023-05-15T10:26:40.497Z,15.90
2023-05-15T10:29:14.347Z,15.90
2023-05-15T10:31:42.725Z,16.00
2023-05-15T10:34:11.204Z,16.00
2023-05-15T10:36:39.024Z,15.90
2023-05-15T10:39:07.597Z,15.90
2023-05-15T10:41:39.223Z,16.00
2023-05-15T10:44:06.520Z,16.00
2023-05-15T10:46:36.885Z,16.00
2023-05-15T10:49:05.262Z,15.90
2023-05-15T10:51:33.548Z,16.00
2023-05-15T10:54:03.851Z,16.20
2023-05-15T10:56:32.600Z,16.30
2023-05-15T10:59:10.071Z,16.40
2023-05-15T11:01:39.554Z,16.40
2023-05-15T11:04:19.616Z,16.40
2023-05-15T11:06:48.913Z,16.30
2023-05-15T11:09:21.928Z,16.30
2023-05-15T11:11:52.367Z,16.20
2023-05-15T11:14:19.976Z,16.10
2023-05-15T11:16:57.508Z,16.20
2023-05-15T11:19:48.912Z,16.30
2023-05-15T11:22:18.101Z,16.60
2023-05-15T11:25:05.603Z,16.70
2023-05-15T11:27:41.602Z,16.80
2023-05-15T11:30:23.011Z,16.90
2023-05-15T11:32:59.540Z,16.80
2023-05-15T11:35:43.533Z,16.80
2023-05-15T11:38:10.525Z,16.80
2023-05-15T11:40:56.520Z,17.10
2023-05-15T11:43:35.975Z,17.20
2023-05-15T11:46:07.932Z,17.40
2023-05-15T11:48:50.157Z,17.50
2023-05-15T11:51:22.068Z,17.70
2023-05-15T11:53:51.534Z,17.60
2023-05-15T11:56:30.991Z,17.80
2023-05-15T11:59:01.298Z,17.90
2023-05-15T12:01:38.474Z,17.90
2023-05-15T12:04:17.230Z,18.00
2023-05-15T12:06:47.344Z,18.00
2023-05-15T12:09:19.436Z,18.20
2023-05-15T12:11:52.712Z,18.50
2023-05-15T12:14:30.408Z,18.70
2023-05-15T12:17:04.658Z,18.80
2023-05-15T12:19:34.345Z,19.10
2023-05-15T12:22:01.385Z,19.10
2023-05-15T12:24:28.394Z,18.90
2023-05-15T12:26:57.428Z,18.70
2023-05-15T12:29:26.532Z,18.60
2023-05-15T12:31:54.209Z,18.60
2023-05-15T12:34:21.934Z,18.70
2023-05-15T12:36:49.005Z,18.70
2023-05-15T12:39:16.135Z,18.70
2023-05-15T12:41:46.765Z,18.60
2023-05-15T12:44:18.535Z,18.50
2023-05-15T12:46:48.538Z,18.60
2023-05-15T12:49:22.821Z,18.80
2023-05-15T12:51:50.226Z,19.20
2023-05-15T12:54:26.368Z,19.40
2023-05-15T12:56:53.620Z,19.50
2023-05-15T12:59:21.342Z,19.70
2023-05-15T13:01:48.479Z,19.70
2023-05-15T13:04:16.549Z,19.60
2023-05-15T13:06:46.925Z,19.50
2023-05-15T13:09:21.153Z,19.50
2023-05-15T13:11:48.442Z,19.30
2023-05-15T13:14:18.158Z,19.10
2023-05-15T13:16:46.848Z,18.90
2023-05-15T13:19:14.547Z,18.70
2023-05-15T13:21:41.695Z,18.50
2023-05-15T13:24:10.776Z,18.50
2023-05-15T13:26:38.050Z,18.40
2023-05-15T13:29:05.297Z,18.30
2023-05-15T13:31:32.577Z,18.20
2023-05-15T13:33:59.615Z,18.20
2023-05-15T13:36:26.735Z,18.00
2023-05-15T13:38:53.757Z,17.90
2023-05-15T13:41:21.152Z,17.80
2023-05-15T13:43:49.315Z,17.80
2023-05-15T13:46:16.642Z,17.80
2023-05-15T13:48:43.819Z,17.80
2023-05-15T13:51:10.867Z,17.80
2023-05-15T13:53:37.911Z,17.80
2023-05-15T13:56:05.325Z,17.90
2023-05-15T13:58:35.351Z,18.20
2023-05-15T14:01:07.313Z,18.40
2023-05-15T14:03:34.706Z,18.50
2023-05-15T14:06:01.886Z,18.50
2023-05-15T14:08:28.981Z,18.50
2023-05-15T14:10:56.281Z,18.50
2023-05-15T14:13:24.347Z,18.50
2023-05-15T14:15:51.449Z,18.50
2023-05-15T14:18:18.534Z,18.50
2023-05-15T14:20:45.677Z,18.70
2023-05-15T14:23:12.713Z,18.90
2023-05-15T14:25:41.169Z,19.00
2023-05-15T14:28:08.228Z,19.10
2023-05-15T14:30:35.311Z,19.30
2023-05-15T14:33:02.376Z,19.60
2023-05-15T14:35:29.422Z,19.70
2023-05-15T14:37:57.234Z,19.80
2023-05-15T14:40:24.388Z,19.80
2023-05-15T14:42:51.611Z,19.80
2023-05-15T14:45:18.761Z,20.00
2023-05-15T14:47:45.865Z,19.80
2023-05-15T14:50:12.917Z,19.50
2023-05-15T14:52:39.977Z,19.30
2023-05-15T14:55:09.315Z,19.20
2023-05-15T14:57:38.094Z,19.00
2023-05-15T15:00:07.146Z,19.00
2023-05-15T15:02:34.491Z,19.00
2023-05-15T15:05:01.684Z,19.00
2023-05-15T15:07:32.845Z,19.40
2023-05-15T15:09:59.906Z,19.60
2023-05-15T15:12:27.624Z,19.70
2023-05-15T15:14:54.741Z,19.70
2023-05-15T15:17:21.763Z,19.80
2023-05-15T15:19:48.903Z,19.70
2023-05-15T15:22:15.999Z,19.60
2023-05-15T15:24:43.010Z,19.60
2023-05-15T15:27:10.057Z,19.80
2023-05-15T15:29:37.158Z,20.00
2023-05-15T15:32:04.520Z,20.20
2023-05-15T15:34:31.579Z,20.40
2023-05-15T15:36:58.589Z,20.50
2023-05-15T15:39:25.649Z,20.50
2023-05-15T15:41:52.729Z,20.20
2023-05-15T15:44:19.753Z,20.20
2023-05-15T15:46:46.813Z,20.30
2023-05-15T15:49:13.911Z,20.20
2023-05-15T15:51:43.871Z,20.10
2023-05-15T15:54:11.310Z,20.20
2023-05-15T15:56:38.362Z,20.20
2023-05-15T15:59:05.751Z,20.20
2023-05-15T16:01:33.319Z,20.20
2023-05-15T16:04:00.888Z,20.20
2023-05-15T16:06:28.193Z,20.30
2023-05-15T16:08:55.301Z,20.30
2023-05-15T16:11:22.466Z,20.30
2023-05-15T16:13:52.670Z,20.30
2023-05-15T16:16:19.876Z,20.30
2023-05-15T16:18:47.511Z,20.30
2023-05-15T16:21:15.734Z,20.10
2023-05-15T16:23:43.707Z,19.90
2023-05-15T16:26:11.607Z,19.70
2023-05-15T16:28:39.172Z,19.50
2023-05-15T16:31:07.176Z,19.40
2023-05-15T16:33:35.056Z,19.20
2023-05-15T16:36:05.615Z,19.10
2023-05-15T16:38:33.495Z,19.00
2023-05-15T16:41:02.034Z,18.90
2023-05-15T16:43:30.497Z,18.90
2023-05-15T16:48:28.651Z,18.70
2023-05-15T16:50:56.764Z,18.70
2023-05-15T16:53:26.929Z,18.60
2023-05-15T16:55:54.896Z,18.60
2023-05-15T16:58:23.675Z,18.60
2023-05-15T17:00:51.611Z,18.50
2023-05-15T17:03:20.157Z,18.40
2023-05-15T17:05:49.073Z,18.30
2023-05-15T17:08:17.070Z,18.30
2023-05-15T17:10:45.071Z,18.20
2023-05-15T17:13:16.054Z,18.20
2023-05-15T17:15:44.150Z,18.10
2023-05-15T17:18:12.144Z,18.10
2023-05-15T17:20:40.159Z,18.00
2023-05-15T17:23:08.195Z,18.00
2023-05-15T17:25:36.265Z,17.90
2023-05-15T17:28:04.239Z,17.80
2023-05-15T17:33:01.034Z,17.70
2023-05-15T17:35:31.456Z,17.60
2023-05-15T17:38:01.194Z,17.50
2023-05-15T17:40:29.240Z,17.40
2023-05-15T17:42:57.281Z,17.40
2023-05-15T17:45:25.597Z,17.30
2023-05-15T17:47:53.796Z,17.20
2023-05-15T17:50:21.848Z,17.10
2023-05-15T17:55:18.434Z,17.00
2023-05-15T17:57:47.067Z,16.90
2023-05-15T18:00:16.917Z,16.90
2023-05-15T18:02:45.281Z,16.80
2023-05-15T18:05:13.325Z,16.70
2023-05-15T18:07:43.002Z,16.70
2023-05-15T18:10:11.367Z,16.70
2023-05-15T18:12:39.474Z,16.60
2023-05-15T18:15:08.341Z,16.50
2023-05-15T18:17:36.553Z,16.50
2023-05-15T18:20:06.300Z,16.40
2023-05-15T18:22:35.043Z,16.40
2023-05-15T18:25:03.369Z,16.30
2023-05-15T18:27:31.900Z,16.20
2023-05-15T18:30:00.085Z,16.20
2023-05-15T18:32:28.216Z,16.10
2023-05-15T18:34:56.411Z,16.10
2023-05-15T18:37:24.647Z,16.00
2023-05-15T18:39:53.107Z,16.00
2023-05-15T18:42:21.176Z,15.90
2023-05-15T18:44:52.397Z,15.90
2023-05-15T18:47:20.685Z,15.80
2023-05-15T18:49:48.725Z,15.80
2023-05-15T18:52:17.055Z,15.70
2023-05-15T18:54:45.848Z,15.60
2023-05-15T18:57:17.435Z,15.60
2023-05-15T18:59:46.103Z,15.50
2023-05-15T19:02:14.561Z,15.50
2023-05-15T19:04:42.724Z,15.50
2023-05-15T19:07:10.787Z,15.40
2023-05-15T19:09:38.948Z,15.40
2023-05-15T19:12:07.535Z,15.30
2023-05-15T19:14:36.698Z,15.30
2023-05-15T19:17:04.959Z,15.30
2023-05-15T19:19:33.057Z,15.20
2023-05-15T19:22:01.696Z,15.20
2023-05-15T19:24:32.031Z,15.10
2023-05-15T19:27:01.754Z,15.00
2023-05-15T19:29:32.043Z,15.00
2023-05-15T19:32:02.096Z,14.90
2023-05-15T19:36:58.722Z,14.90
2023-05-15T19:39:26.868Z,14.80
2023-05-15T19:41:56.422Z,14.80
2023-05-15T19:44:24.521Z,14.80
2023-05-15T19:46:54.599Z,14.70
2023-05-15T19:49:22.714Z,14.70
2023-05-15T19:51:50.719Z,14.70
2023-05-15T19:54:18.850Z,14.70
2023-05-15T19:56:47.003Z,14.60
2023-05-15T19:59:15.194Z,14.60
2023-05-15T20:01:43.366Z,14.50
2023-05-15T20:04:14.290Z,14.50
2023-05-15T20:06:42.600Z,14.50
2023-05-15T20:09:10.808Z,14.50
2023-05-15T20:11:38.867Z,14.40
2023-05-15T20:14:06.938Z,14.40
2023-05-15T20:16:35.183Z,14.40
2023-05-15T20:19:04.699Z,14.40
2023-05-15T20:21:32.908Z,14.30
2023-05-15T20:24:00.981Z,14.30
2023-05-15T20:26:29.124Z,14.20
2023-05-15T20:28:57.238Z,14.20
2023-05-15T20:31:25.338Z,14.20
2023-05-15T20:33:53.421Z,14.10
2023-05-15T20:36:23.348Z,14.10
2023-05-15T20:38:52.822Z,14.00
2023-05-15T20:41:23.055Z,14.00
2023-05-15T20:43:51.483Z,14.00
2023-05-15T20:46:19.620Z,13.90
2023-05-15T20:48:47.672Z,13.80
2023-05-15T20:51:16.564Z,13.80
2023-05-15T20:53:44.585Z,13.70
2023-05-15T20:56:12.546Z,13.70
2023-05-15T20:58:40.403Z,13.60
2023-05-15T21:01:07.767Z,13.60
2023-05-15T21:03:34.943Z,13.60
2023-05-15T21:06:02.468Z,13.50
2023-05-15T21:08:29.817Z,13.50
2023-05-15T21:10:56.829Z,13.50
2023-05-15T21:13:23.880Z,13.40
2023-05-15T21:15:51.372Z,13.40
2023-05-15T21:18:18.930Z,13.40
2023-05-15T21:20:46.097Z,13.30
2023-05-15T21:23:13.432Z,13.30
2023-05-15T21:25:42.803Z,13.30
2023-05-15T21:28:10.136Z,13.30
2023-05-15T21:30:37.229Z,13.20
2023-05-15T21:33:04.369Z,13.20
2023-05-15T21:35:31.794Z,13.20
2023-05-15T21:37:59.513Z,13.20
2023-05-15T21:40:26.724Z,13.20
2023-05-15T21:42:53.871Z,13.20
2023-05-15T21:45:21.108Z,13.30
2023-05-15T21:47:48.167Z,13.20
2023-05-15T21:50:15.199Z,13.20
2023-05-15T21:52:42.556Z,13.20
2023-05-15T21:55:09.922Z,13.20
2023-05-15T21:57:37.133Z,13.20
2023-05-15T22:00:07.278Z,13.20
2023-05-15T22:02:34.976Z,13.20
2023-05-15T22:05:02.976Z,13.20
2023-05-15T22:07:30.157Z,13.20
2023-05-15T22:09:57.339Z,13.20
2023-05-15T22:12:24.471Z,13.20
2023-05-15T22:14:58.808Z,13.20
2023-05-15T22:17:29.041Z,13.20
2023-05-15T22:20:06.620Z,13.20
2023-05-15T22:22:35.563Z,13.20
2023-05-15T22:25:02.724Z,13.20
2023-05-15T22:27:30.113Z,13.30
2023-05-15T22:29:57.290Z,13.30
2023-05-15T22:32:24.656Z,13.30
2023-05-15T22:34:51.955Z,13.30
2023-05-15T22:37:19.096Z,13.30
2023-05-15T22:39:46.156Z,13.30
2023-05-15T22:42:13.255Z,13.30
2023-05-15T22:44:40.388Z,13.30
2023-05-15T22:47:07.803Z,13.30
2023-05-15T22:49:34.834Z,13.30
2023-05-15T22:52:02.059Z,13.30
2023-05-15T22:54:29.195Z,13.30
2023-05-15T22:56:56.441Z,13.30
2023-05-15T22:59:23.567Z,13.30
2023-05-15T23:01:50.677Z,13.30
2023-05-15T23:04:17.981Z,13.30
2023-05-15T23:06:45.792Z,13.30
2023-05-15T23:09:12.776Z,13.30
2023-05-15T23:11:39.822Z,13.40
2023-05-15T23:14:08.206Z,13.40
2023-05-15T23:16:35.777Z,13.40
2023-05-15T23:19:02.882Z,13.40
2023-05-15T23:21:30.051Z,13.40
2023-05-15T23:23:57.087Z,13.40
2023-05-15T23:26:24.086Z,13.40
2023-05-15T23:28:51.502Z,13.40
2023-05-15T23:31:18.608Z,13.40
2023-05-15T23:33:45.724Z,13.40
2023-05-15T23:36:12.753Z,13.30
2023-05-15T23:38:40.072Z,13.30
2023-05-15T23:41:07.077Z,13.30
2023-05-15T23:43:34.185Z,13.30
2023-05-15T23:46:01.234Z,13.40
2023-05-15T23:48:28.414Z,13.40
2023-05-15T23:50:55.408Z,13.40
2023-05-15T23:53:22.812Z,13.30
2023-05-15T23:55:49.837Z,13.30
2023-05-15T23:58:16.866Z,13.30
